Terminal Aerodrome Forecast
Issued by NWS

Home | Current Version | Previous Version | Text Only | Print | Product List | Glossary On
Versions: 1 2 3 4 5 6 7 8 9 10 11 12
000
FTUS46 KMTR 201133
TAFSJC
TAF
KSJC 201133Z 2012/2112 14004KT P6SM SCT035 OVC100
     FM201500 15008KT P6SM FEW030 OVC050
     FM201800 13005KT P6SM BKN050 OVC080
     FM210000 32007KT P6SM FEW030 SCT100
     FM210800 VRB03KT P6SM FEW020
     FM211000 14004KT P6SM FEW020=

USA.gov is the U.S. government's official web portal to all federal, state and local government web resources and services.